createdAt,value
2023-03-23T15:59:38.232Z,2.00
2023-03-23T16:02:29.460Z,2.15
2023-03-23T16:05:19.305Z,2.10
2023-03-23T16:08:08.848Z,2.00
2023-03-23T16:10:56.319Z,1.90
2023-03-23T16:13:45.574Z,2.13
2023-03-23T16:16:37.819Z,2.05
2023-03-23T16:19:26.036Z,2.00
2023-03-23T16:22:13.531Z,1.73
2023-03-23T16:25:02.191Z,1.92
2023-03-23T16:27:52.634Z,1.75
2023-03-23T16:30:42.879Z,1.98
2023-03-23T16:33:30.253Z,1.90
2023-03-23T16:36:19.895Z,1.92
2023-03-23T16:39:08.151Z,1.90
2023-03-23T16:42:00.790Z,1.90
2023-03-23T16:47:39.932Z,1.88
2023-03-23T16:50:31.130Z,2.20
2023-03-23T16:53:19.125Z,2.10
2023-03-23T16:56:06.813Z,2.08
2023-03-23T16:58:54.192Z,1.83
2023-03-23T17:01:44.566Z,2.20
2023-03-23T17:04:33.431Z,1.90
2023-03-23T17:07:20.843Z,2.53
2023-03-23T17:10:13.408Z,2.15
2023-03-23T17:13:03.417Z,2.33
2023-03-23T17:15:53.713Z,2.03
2023-03-23T17:18:41.270Z,1.85
2023-03-23T17:21:31.204Z,2.13
2023-03-23T17:24:19.310Z,2.42
2023-03-23T17:27:06.869Z,2.00
2023-03-23T17:29:56.762Z,2.33
2023-03-23T17:32:44.082Z,3.17
2023-03-23T17:35:31.803Z,4.38
2023-03-23T17:38:19.389Z,4.05
2023-03-23T17:41:08.378Z,2.67
2023-03-23T17:43:56.450Z,2.40
2023-03-23T17:46:43.971Z,2.47
2023-03-23T17:49:31.572Z,2.15
2023-03-23T17:52:19.112Z,1.98
2023-03-23T17:55:07.089Z,2.20
2023-03-23T17:57:54.533Z,2.60
2023-03-23T18:00:41.950Z,3.00
2023-03-23T18:03:32.390Z,2.60
2023-03-23T18:06:22.473Z,2.35
2023-03-23T18:09:10.403Z,2.70
2023-03-23T18:12:00.183Z,2.33
2023-03-23T18:15:06.660Z,2.65
2023-03-23T18:17:54.017Z,2.38
2023-03-23T18:20:46.709Z,2.40
2023-03-23T18:26:26.677Z,2.50
2023-03-23T18:29:13.967Z,2.38
2023-03-23T18:32:03.680Z,2.30
2023-03-23T18:34:52.441Z,2.70
2023-03-23T18:37:40.095Z,2.03
2023-03-23T18:40:27.475Z,2.72
2023-03-23T18:43:15.450Z,2.67
2023-03-23T18:46:04.050Z,2.50
2023-03-23T18:48:52.962Z,2.92
2023-03-23T18:51:40.460Z,2.85
2023-03-23T18:54:33.462Z,2.90
2023-03-23T18:57:24.967Z,2.47
2023-03-23T19:00:17.755Z,2.33
2023-03-23T19:03:09.997Z,2.63
2023-03-23T19:06:00.778Z,2.70
2023-03-23T19:08:48.938Z,1.80
2023-03-23T19:11:36.148Z,2.22
2023-03-23T19:14:26.052Z,2.83
2023-03-23T19:17:17.675Z,2.90
2023-03-23T19:20:07.170Z,2.92
2023-03-23T19:22:57.316Z,3.90
2023-03-23T19:25:46.033Z,3.60
2023-03-23T19:31:26.279Z,4.20
2023-03-23T19:34:14.085Z,3.97
2023-03-23T19:37:05.421Z,3.63
2023-03-23T19:40:00.087Z,3.40
2023-03-23T19:42:49.816Z,3.97
2023-03-23T19:45:41.818Z,3.05
2023-03-23T19:48:52.408Z,2.88
2023-03-23T19:51:45.404Z,2.88
2023-03-23T19:54:33.324Z,3.00
2023-03-23T19:57:21.499Z,3.65
2023-03-23T20:00:13.496Z,4.00
2023-03-23T20:03:03.803Z,3.75
2023-03-23T20:06:11.059Z,2.97
2023-03-23T20:09:02.725Z,3.30
2023-03-23T20:11:59.399Z,2.80
2023-03-23T20:14:49.471Z,2.85
2023-03-23T20:17:37.541Z,3.00
2023-03-23T20:20:28.024Z,4.13
2023-03-23T20:23:16.783Z,3.25
2023-03-23T20:26:11.671Z,3.42
2023-03-23T20:29:00.801Z,3.35
2023-03-23T20:31:48.293Z,3.75
2023-03-23T20:34:41.853Z,3.67
2023-03-23T20:37:32.429Z,3.95
2023-03-23T20:40:22.742Z,3.47
2023-03-23T20:43:10.759Z,3.90
2023-03-23T20:46:02.512Z,3.05
2023-03-23T20:48:50.822Z,3.15
2023-03-23T20:51:47.506Z,2.25
2023-03-23T20:54:38.113Z,3.17
2023-03-23T20:57:28.954Z,2.83
2023-03-23T21:00:18.070Z,3.38
2023-03-23T21:03:05.326Z,2.97
2023-03-23T21:05:52.925Z,3.25
2023-03-23T21:08:40.939Z,2.88
2023-03-23T21:11:28.652Z,2.90
2023-03-23T21:14:19.494Z,2.30
2023-03-23T21:17:07.817Z,2.70
2023-03-23T21:19:58.826Z,3.25
2023-03-23T21:22:48.978Z,2.72
2023-03-23T21:25:38.047Z,2.80
2023-03-23T21:28:25.457Z,2.80
2023-03-23T21:31:19.565Z,3.08
2023-03-23T21:34:07.504Z,2.55
2023-03-23T21:36:56.875Z,3.03
2023-03-23T21:39:44.480Z,2.83
2023-03-23T21:42:45.494Z,3.15
2023-03-23T21:45:40.100Z,3.00
2023-03-23T21:48:33.676Z,3.05
2023-03-23T21:51:26.570Z,3.13
2023-03-23T21:54:22.957Z,3.38
2023-03-23T21:57:10.484Z,2.33
2023-03-23T21:59:58.285Z,2.72
2023-03-23T22:02:45.919Z,3.42
2023-03-23T22:05:39.711Z,3.30
2023-03-23T22:08:30.110Z,3.08
2023-03-23T22:11:24.435Z,2.38
2023-03-23T22:14:12.104Z,2.55
2023-03-23T22:17:00.976Z,2.45
2023-03-23T22:19:50.030Z,2.67
2023-03-23T22:22:37.576Z,2.50
2023-03-23T22:25:27.170Z,3.00
2023-03-23T22:28:14.587Z,2.60
2023-03-23T22:31:08.533Z,2.65
2023-03-23T22:33:58.768Z,3.00
2023-03-23T22:36:46.239Z,2.75
2023-03-23T22:39:39.185Z,2.40
2023-03-23T22:42:26.687Z,2.40
2023-03-23T22:45:14.104Z,2.50
2023-03-23T22:48:07.919Z,3.05
2023-03-23T22:51:01.109Z,3.00
2023-03-23T22:53:49.860Z,2.40
2023-03-23T22:56:38.163Z,2.72
2023-03-23T22:59:25.983Z,2.50
2023-03-23T23:02:17.892Z,2.50
2023-03-23T23:05:08.129Z,3.20
2023-03-23T23:07:56.067Z,2.85
2023-03-23T23:10:46.676Z,2.90
2023-03-23T23:13:34.238Z,2.88
2023-03-23T23:16:27.688Z,3.08
2023-03-23T23:19:17.169Z,2.38
2023-03-23T23:22:18.547Z,2.58
2023-03-23T23:25:11.133Z,2.97
2023-03-23T23:28:00.154Z,2.90
2023-03-23T23:30:48.305Z,2.83
2023-03-23T23:33:36.941Z,3.33
2023-03-23T23:36:29.991Z,3.80
2023-03-23T23:39:20.056Z,3.55
2023-03-23T23:42:09.016Z,3.00
2023-03-23T23:45:01.890Z,3.70
2023-03-23T23:47:49.222Z,3.50
2023-03-23T23:50:36.648Z,2.95
2023-03-23T23:53:26.864Z,3.40
2023-03-23T23:56:14.552Z,3.03
2023-03-23T23:59:02.026Z,2.90
